sensor_id;sensor_type;location;lat;lon;timestamp;pressure;altitude;pressure_sealevel;temperature;humidity
71344;BME280;59146;43.850;25.948;2023-04-04T00:00:07;100423.06;;;6.82;88.68
71344;BME280;59146;43.850;25.948;2023-04-04T00:02:33;100417.22;;;6.77;89.05
71344;BME280;59146;43.850;25.948;2023-04-04T00:04:58;100397.69;;;6.70;89.06
71344;BME280;59146;43.850;25.948;2023-04-04T00:07:23;100350.59;;;6.59;89.06
71344;BME280;59146;43.850;25.948;2023-04-04T00:09:49;100305.78;;;6.18;89.86
71344;BME280;59146;43.850;25.948;2023-04-04T00:12:16;100349.47;;;6.46;89.96
71344;BME280;59146;43.850;25.948;2023-04-04T00:14:41;100302.44;;;6.35;90.57
71344;BME280;59146;43.850;25.948;2023-04-04T00:17:07;100274.75;;;5.78;90.50
71344;BME280;59146;43.850;25.948;2023-04-04T00:19:32;100179.47;;;5.27;89.90
71344;BME280;59146;43.850;25.948;2023-04-04T00:21:58;100340.34;;;6.00;90.05
71344;BME280;59146;43.850;25.948;2023-04-04T00:24:24;100256.47;;;6.20;90.02
71344;BME280;59146;43.850;25.948;2023-04-04T00:26:49;100148.41;;;5.27;89.66
71344;BME280;59146;43.850;25.948;2023-04-04T00:29:15;100315.75;;;6.46;90.43
71344;BME280;59146;43.850;25.948;2023-04-04T00:31:41;100312.81;;;6.35;90.05
71344;BME280;59146;43.850;25.948;2023-04-04T00:34:07;100239.59;;;5.93;89.25
71344;BME280;59146;43.850;25.948;2023-04-04T00:36:32;100254.25;;;5.74;88.47
71344;BME280;59146;43.850;25.948;2023-04-04T00:38:58;100188.28;;;5.23;88.63
71344;BME280;59146;43.850;25.948;2023-04-04T00:41:23;100346.41;;;5.99;88.35
71344;BME280;59146;43.850;25.948;2023-04-04T00:43:48;100236.63;;;5.61;88.13
71344;BME280;59146;43.850;25.948;2023-04-04T00:46:14;100259.94;;;5.61;88.06
71344;BME280;59146;43.850;25.948;2023-04-04T00:48:42;100268.88;;;5.75;88.63
71344;BME280;59146;43.850;25.948;2023-04-04T00:51:07;100269.44;;;5.62;89.33
71344;BME280;59146;43.850;25.948;2023-04-04T00:53:33;100246.47;;;5.55;88.97
71344;BME280;59146;43.850;25.948;2023-04-04T00:55:58;100236.63;;;5.61;89.46
71344;BME280;59146;43.850;25.948;2023-04-04T00:58:24;100266.09;;;5.79;89.51
71344;BME280;59146;43.850;25.948;2023-04-04T01:00:50;100317.03;;;6.19;89.34
71344;BME280;59146;43.850;25.948;2023-04-04T01:03:17;100318.88;;;5.77;88.48
71344;BME280;59146;43.850;25.948;2023-04-04T01:05:43;100323.09;;;6.18;87.75
71344;BME280;59146;43.850;25.948;2023-04-04T01:08:10;100295.00;;;6.09;86.89
71344;BME280;59146;43.850;25.948;2023-04-04T01:10:36;100315.19;;;6.02;87.08
71344;BME280;59146;43.850;25.948;2023-04-04T01:13:02;100283.53;;;5.55;87.32
71344;BME280;59146;43.850;25.948;2023-04-04T01:15:27;100314.22;;;6.05;86.64
71344;BME280;59146;43.850;25.948;2023-04-04T01:17:56;100253.81;;;5.64;86.31
71344;BME280;59146;43.850;25.948;2023-04-04T01:20:25;100280.75;;;5.80;87.07
71344;BME280;59146;43.850;25.948;2023-04-04T01:22:52;100301.94;;;5.70;86.76
71344;BME280;59146;43.850;25.948;2023-04-04T01:25:29;100294.34;;;5.85;87.39
71344;BME280;59146;43.850;25.948;2023-04-04T01:27:59;100232.78;;;5.51;87.70
71344;BME280;59146;43.850;25.948;2023-04-04T01:30:28;100300.22;;;5.30;87.54
71344;BME280;59146;43.850;25.948;2023-04-04T01:33:03;100357.53;;;5.62;88.40
71344;BME280;59146;43.850;25.948;2023-04-04T01:35:45;100320.47;;;5.60;88.63
71344;BME280;59146;43.850;25.948;2023-04-04T01:38:17;100291.59;;;5.70;87.73
71344;BME280;59146;43.850;25.948;2023-04-04T01:40:48;100227.38;;;4.97;86.58
71344;BME280;59146;43.850;25.948;2023-04-04T01:43:14;100281.50;;;5.23;87.15
71344;BME280;59146;43.850;25.948;2023-04-04T01:45:40;100189.63;;;4.71;87.26
71344;BME280;59146;43.850;25.948;2023-04-04T01:48:06;100327.72;;;5.52;86.63
71344;BME280;59146;43.850;25.948;2023-04-04T01:50:32;100279.81;;;5.22;86.86
71344;BME280;59146;43.850;25.948;2023-04-04T01:52:57;100307.31;;;5.25;87.01
71344;BME280;59146;43.850;25.948;2023-04-04T01:55:23;100232.53;;;4.97;87.55
71344;BME280;59146;43.850;25.948;2023-04-04T01:57:48;100274.09;;;5.34;87.25
71344;BME280;59146;43.850;25.948;2023-04-04T02:00:13;100264.94;;;5.27;87.22
71344;BME280;59146;43.850;25.948;2023-04-04T02:02:40;100309.22;;;5.41;87.40
71344;BME280;59146;43.850;25.948;2023-04-04T02:05:06;100227.72;;;4.90;88.18
71344;BME280;59146;43.850;25.948;2023-04-04T02:07:31;100176.69;;;4.51;88.71
71344;BME280;59146;43.850;25.948;2023-04-04T02:09:56;100221.69;;;4.89;89.72
71344;BME280;59146;43.850;25.948;2023-04-04T02:12:22;100188.25;;;4.63;88.78
71344;BME280;59146;43.850;25.948;2023-04-04T02:14:48;100317.34;;;5.12;88.61
71344;BME280;59146;43.850;25.948;2023-04-04T02:17:13;100244.19;;;4.67;89.14
71344;BME280;59146;43.850;25.948;2023-04-04T02:19:39;100281.88;;;4.72;89.88
71344;BME280;59146;43.850;25.948;2023-04-04T02:22:04;100262.31;;;4.87;89.99
71344;BME280;59146;43.850;25.948;2023-04-04T02:24:30;100347.47;;;5.15;89.78
71344;BME280;59146;43.850;25.948;2023-04-04T02:26:55;100291.91;;;4.80;89.77
71344;BME280;59146;43.850;25.948;2023-04-04T02:29:21;100268.34;;;4.66;90.76
71344;BME280;59146;43.850;25.948;2023-04-04T02:31:47;100328.03;;;4.83;91.34
71344;BME280;59146;43.850;25.948;2023-04-04T02:34:12;100316.81;;;5.04;90.99
71344;BME280;59146;43.850;25.948;2023-04-04T02:36:37;100258.34;;;4.57;91.10
71344;BME280;59146;43.850;25.948;2023-04-04T02:39:03;100286.69;;;4.81;91.19
71344;BME280;59146;43.850;25.948;2023-04-04T02:41:30;100304.16;;;4.76;91.61
71344;BME280;59146;43.850;25.948;2023-04-04T02:43:55;100202.94;;;4.21;91.31
71344;BME280;59146;43.850;25.948;2023-04-04T02:46:21;100354.56;;;4.88;91.22
71344;BME280;59146;43.850;25.948;2023-04-04T02:48:46;100307.75;;;4.72;90.96
71344;BME280;59146;43.850;25.948;2023-04-04T02:51:12;100206.47;;;3.96;91.93
71344;BME280;59146;43.850;25.948;2023-04-04T02:53:37;100267.16;;;4.31;92.61
71344;BME280;59146;43.850;25.948;2023-04-04T02:56:02;100270.94;;;4.66;92.94
71344;BME280;59146;43.850;25.948;2023-04-04T02:58:30;100231.91;;;4.29;91.82
71344;BME280;59146;43.850;25.948;2023-04-04T03:00:55;100269.19;;;4.45;92.38
71344;BME280;59146;43.850;25.948;2023-04-04T03:03:21;100320.91;;;4.45;92.86
71344;BME280;59146;43.850;25.948;2023-04-04T03:05:46;100201.72;;;4.08;92.90
71344;BME280;59146;43.850;25.948;2023-04-04T03:08:16;100294.81;;;4.51;93.01
71344;BME280;59146;43.850;25.948;2023-04-04T03:10:43;100264.19;;;4.19;93.89
71344;BME280;59146;43.850;25.948;2023-04-04T03:13:09;100217.81;;;3.92;94.03
71344;BME280;59146;43.850;25.948;2023-04-04T03:15:34;100257.06;;;4.25;94.31
71344;BME280;59146;43.850;25.948;2023-04-04T03:18:00;100255.69;;;3.93;93.70
71344;BME280;59146;43.850;25.948;2023-04-04T03:20:26;100349.63;;;4.16;92.68
71344;BME280;59146;43.850;25.948;2023-04-04T03:22:52;100271.84;;;3.98;92.43
71344;BME280;59146;43.850;25.948;2023-04-04T03:25:17;100245.22;;;3.96;92.53
71344;BME280;59146;43.850;25.948;2023-04-04T03:27:43;100345.16;;;4.19;91.76
71344;BME280;59146;43.850;25.948;2023-04-04T03:30:08;100337.00;;;4.30;92.43
71344;BME280;59146;43.850;25.948;2023-04-04T03:32:38;100332.19;;;4.21;92.32
71344;BME280;59146;43.850;25.948;2023-04-04T03:35:05;100308.59;;;4.07;92.65
71344;BME280;59146;43.850;25.948;2023-04-04T03:37:31;100261.09;;;3.87;93.35
71344;BME280;59146;43.850;25.948;2023-04-04T03:39:56;100307.59;;;3.87;93.34
71344;BME280;59146;43.850;25.948;2023-04-04T03:42:22;100366.69;;;4.20;93.81
71344;BME280;59146;43.850;25.948;2023-04-04T03:44:47;100279.19;;;3.87;94.03
71344;BME280;59146;43.850;25.948;2023-04-04T03:47:13;100362.22;;;4.25;94.81
71344;BME280;59146;43.850;25.948;2023-04-04T03:49:38;100271.28;;;3.90;94.96
71344;BME280;59146;43.850;25.948;2023-04-04T03:52:04;100351.41;;;4.14;94.99
71344;BME280;59146;43.850;25.948;2023-04-04T03:54:30;100374.69;;;4.14;95.00
71344;BME280;59146;43.850;25.948;2023-04-04T03:56:56;100327.81;;;3.99;95.34
71344;BME280;59146;43.850;25.948;2023-04-04T03:59:22;100352.72;;;3.77;95.10
71344;BME280;59146;43.850;25.948;2023-04-04T04:01:47;100364.00;;;3.99;95.04
71344;BME280;59146;43.850;25.948;2023-04-04T04:04:13;100369.69;;;3.84;95.12
71344;BME280;59146;43.850;25.948;2023-04-04T04:06:38;100328.13;;;3.67;95.69
71344;BME280;59146;43.850;25.948;2023-04-04T04:09:04;100309.31;;;3.64;95.51
71344;BME280;59146;43.850;25.948;2023-04-04T04:11:29;100277.78;;;3.54;95.96
71344;BME280;59146;43.850;25.948;2023-04-04T04:13:55;100293.69;;;3.67;96.01
71344;BME280;59146;43.850;25.948;2023-04-04T04:16:20;100097.09;;;2.59;95.68
71344;BME280;59146;43.850;25.948;2023-04-04T04:18:46;100295.66;;;3.83;95.61
71344;BME280;59146;43.850;25.948;2023-04-04T04:21:12;100296.66;;;3.79;95.46
71344;BME280;59146;43.850;25.948;2023-04-04T04:23:37;100394.09;;;4.00;95.21
71344;BME280;59146;43.850;25.948;2023-04-04T04:26:03;100363.84;;;4.04;95.50
71344;BME280;59146;43.850;25.948;2023-04-04T04:28:29;100269.16;;;3.55;95.79
71344;BME280;59146;43.850;25.948;2023-04-04T04:30:54;100349.13;;;3.81;95.60
71344;BME280;59146;43.850;25.948;2023-04-04T04:33:27;100370.91;;;3.99;95.19
71344;BME280;59146;43.850;25.948;2023-04-04T04:35:58;100339.66;;;3.82;95.18
71344;BME280;59146;43.850;25.948;2023-04-04T04:38:24;100298.97;;;3.64;95.43
71344;BME280;59146;43.850;25.948;2023-04-04T04:40:49;100322.41;;;3.82;95.61
71344;BME280;59146;43.850;25.948;2023-04-04T04:43:15;100334.03;;;3.94;96.33
71344;BME280;59146;43.850;25.948;2023-04-04T04:45:40;100345.13;;;3.97;95.87
71344;BME280;59146;43.850;25.948;2023-04-04T04:48:06;100317.13;;;3.85;95.12
71344;BME280;59146;43.850;25.948;2023-04-04T04:50:32;100341.44;;;3.80;95.12
71344;BME280;59146;43.850;25.948;2023-04-04T04:52:57;100357.34;;;3.92;95.68
71344;BME280;59146;43.850;25.948;2023-04-04T04:55:23;100354.19;;;3.84;95.58
71344;BME280;59146;43.850;25.948;2023-04-04T04:57:48;100334.38;;;3.85;95.49
71344;BME280;59146;43.850;25.948;2023-04-04T05:00:15;100363.31;;;3.94;95.95
71344;BME280;59146;43.850;25.948;2023-04-04T05:02:42;100371.06;;;3.94;96.29
71344;BME280;59146;43.850;25.948;2023-04-04T05:05:08;100358.06;;;3.96;96.25
71344;BME280;59146;43.850;25.948;2023-04-04T05:07:33;100318.75;;;3.40;96.18
71344;BME280;59146;43.850;25.948;2023-04-04T05:09:58;100365.03;;;3.94;96.33
71344;BME280;59146;43.850;25.948;2023-04-04T05:12:24;100320.28;;;3.70;95.80
71344;BME280;59146;43.850;25.948;2023-04-04T05:14:49;100330.44;;;3.50;95.75
71344;BME280;59146;43.850;25.948;2023-04-04T05:17:15;100378.25;;;3.86;96.03
71344;BME280;59146;43.850;25.948;2023-04-04T05:19:40;100281.00;;;3.36;96.67
71344;BME280;59146;43.850;25.948;2023-04-04T05:22:06;100260.31;;;3.13;97.01
71344;BME280;59146;43.850;25.948;2023-04-04T05:24:32;100343.13;;;3.56;96.87
71344;BME280;59146;43.850;25.948;2023-04-04T05:26:57;100374.97;;;3.81;97.07
71344;BME280;59146;43.850;25.948;2023-04-04T05:29:23;100398.91;;;3.86;97.18
71344;BME280;59146;43.850;25.948;2023-04-04T05:31:48;100355.53;;;3.71;97.55
71344;BME280;59146;43.850;25.948;2023-04-04T05:34:14;100364.41;;;3.38;97.52
71344;BME280;59146;43.850;25.948;2023-04-04T05:36:40;100402.59;;;3.79;97.57
71344;BME280;59146;43.850;25.948;2023-04-04T05:39:06;100381.50;;;3.67;97.77
71344;BME280;59146;43.850;25.948;2023-04-04T05:41:31;100216.75;;;2.53;97.49
71344;BME280;59146;43.850;25.948;2023-04-04T05:43:58;100340.97;;;3.19;97.60
71344;BME280;59146;43.850;25.948;2023-04-04T05:46:23;100405.28;;;3.26;97.55
71344;BME280;59146;43.850;25.948;2023-04-04T05:48:49;100421.81;;;3.20;97.32
71344;BME280;59146;43.850;25.948;2023-04-04T05:51:15;100447.44;;;3.26;96.95
71344;BME280;59146;43.850;25.948;2023-04-04T05:53:41;100387.03;;;3.04;97.20
71344;BME280;59146;43.850;25.948;2023-04-04T05:56:06;100399.88;;;3.07;97.22
71344;BME280;59146;43.850;25.948;2023-04-04T05:58:32;100433.94;;;3.18;97.34
71344;BME280;59146;43.850;25.948;2023-04-04T06:00:57;100446.38;;;3.32;97.67
71344;BME280;59146;43.850;25.948;2023-04-04T06:03:23;100396.88;;;2.93;97.99
71344;BME280;59146;43.850;25.948;2023-04-04T06:05:49;100360.31;;;2.80;98.41
71344;BME280;59146;43.850;25.948;2023-04-04T06:08:16;100403.53;;;3.00;98.62
71344;BME280;59146;43.850;25.948;2023-04-04T06:10:41;100369.38;;;2.92;99.03
71344;BME280;59146;43.850;25.948;2023-04-04T06:13:07;100384.97;;;2.89;99.54
71344;BME280;59146;43.850;25.948;2023-04-04T06:15:32;100375.09;;;3.01;99.50
71344;BME280;59146;43.850;25.948;2023-04-04T06:17:57;100330.28;;;2.78;99.30
71344;BME280;59146;43.850;25.948;2023-04-04T06:20:23;100360.38;;;3.05;99.48
71344;BME280;59146;43.850;25.948;2023-04-04T06:22:48;100334.78;;;2.71;98.78
71344;BME280;59146;43.850;25.948;2023-04-04T06:25:14;100325.31;;;2.72;98.15
71344;BME280;59146;43.850;25.948;2023-04-04T06:27:39;100373.47;;;2.99;97.98
71344;BME280;59146;43.850;25.948;2023-04-04T06:30:05;100414.31;;;3.12;97.59
71344;BME280;59146;43.850;25.948;2023-04-04T06:32:31;100343.97;;;2.52;97.09
71344;BME280;59146;43.850;25.948;2023-04-04T06:34:58;100402.09;;;3.17;97.42
71344;BME280;59146;43.850;25.948;2023-04-04T06:37:23;100420.44;;;3.10;97.27
71344;BME280;59146;43.850;25.948;2023-04-04T06:39:48;100420.22;;;3.16;96.62
71344;BME280;59146;43.850;25.948;2023-04-04T06:42:14;100386.75;;;2.87;97.02
71344;BME280;59146;43.850;25.948;2023-04-04T06:44:39;100411.34;;;3.25;97.55
71344;BME280;59146;43.850;25.948;2023-04-04T06:47:05;100410.59;;;3.21;97.13
71344;BME280;59146;43.850;25.948;2023-04-04T06:49:31;100385.09;;;3.12;96.80
71344;BME280;59146;43.850;25.948;2023-04-04T06:51:58;100397.47;;;3.27;97.00
71344;BME280;59146;43.850;25.948;2023-04-04T06:54:24;100383.00;;;3.23;97.47
71344;BME280;59146;43.850;25.948;2023-04-04T06:56:50;100378.41;;;3.31;96.30
71344;BME280;59146;43.850;25.948;2023-04-04T06:59:16;100344.97;;;3.02;95.78
71344;BME280;59146;43.850;25.948;2023-04-04T07:01:42;100361.34;;;3.27;96.22
71344;BME280;59146;43.850;25.948;2023-04-04T07:04:07;100334.16;;;2.91;96.22
71344;BME280;59146;43.850;25.948;2023-04-04T07:06:33;100412.78;;;3.33;95.25
71344;BME280;59146;43.850;25.948;2023-04-04T07:08:58;100334.84;;;2.96;95.38
71344;BME280;59146;43.850;25.948;2023-04-04T07:11:24;100381.63;;;3.39;95.76
71344;BME280;59146;43.850;25.948;2023-04-04T07:13:49;100366.28;;;3.33;95.40
71344;BME280;59146;43.850;25.948;2023-04-04T07:16:14;100291.13;;;2.91;96.13
71344;BME280;59146;43.850;25.948;2023-04-04T07:18:40;100359.75;;;3.23;95.46
71344;BME280;59146;43.850;25.948;2023-04-04T07:21:05;100333.66;;;3.06;95.46
71344;BME280;59146;43.850;25.948;2023-04-04T07:23:31;100340.03;;;3.20;96.10
71344;BME280;59146;43.850;25.948;2023-04-04T07:25:56;100351.34;;;3.18;96.28
71344;BME280;59146;43.850;25.948;2023-04-04T07:28:22;100369.00;;;3.30;96.59
71344;BME280;59146;43.850;25.948;2023-04-04T07:30:47;100367.56;;;3.21;96.38
71344;BME280;59146;43.850;25.948;2023-04-04T07:33:13;100288.91;;;2.81;96.43
71344;BME280;59146;43.850;25.948;2023-04-04T07:35:38;100278.91;;;2.70;95.89
71344;BME280;59146;43.850;25.948;2023-04-04T07:38:03;100295.66;;;2.85;96.12
71344;BME280;59146;43.850;25.948;2023-04-04T07:40:29;100396.00;;;3.20;96.03
71344;BME280;59146;43.850;25.948;2023-04-04T07:42:56;100384.84;;;3.19;96.27
71344;BME280;59146;43.850;25.948;2023-04-04T07:45:21;100330.34;;;3.02;96.03
71344;BME280;59146;43.850;25.948;2023-04-04T07:47:47;100375.56;;;3.14;95.87
71344;BME280;59146;43.850;25.948;2023-04-04T07:50:13;100399.59;;;3.16;95.49
71344;BME280;59146;43.850;25.948;2023-04-04T07:52:39;100391.13;;;3.11;95.75
71344;BME280;59146;43.850;25.948;2023-04-04T07:55:05;100332.53;;;2.88;95.87
71344;BME280;59146;43.850;25.948;2023-04-04T07:57:40;100369.44;;;3.16;96.14
71344;BME280;59146;43.850;25.948;2023-04-04T08:00:07;100388.16;;;3.23;96.40
71344;BME280;59146;43.850;25.948;2023-04-04T08:02:36;100396.59;;;3.28;96.12
71344;BME280;59146;43.850;25.948;2023-04-04T08:05:02;100321.56;;;2.82;96.09
71344;BME280;59146;43.850;25.948;2023-04-04T08:07:28;100403.78;;;3.18;95.57
71344;BME280;59146;43.850;25.948;2023-04-04T08:09:53;100319.75;;;2.84;95.20
71344;BME280;59146;43.850;25.948;2023-04-04T08:12:19;100304.34;;;2.82;95.02
71344;BME280;59146;43.850;25.948;2023-04-04T08:14:44;100381.69;;;3.36;94.96
71344;BME280;59146;43.850;25.948;2023-04-04T08:17:09;100356.31;;;3.24;94.84
71344;BME280;59146;43.850;25.948;2023-04-04T08:19:36;100409.81;;;3.45;94.59
71344;BME280;59146;43.850;25.948;2023-04-04T08:22:01;100235.50;;;2.30;93.44
71344;BME280;59146;43.850;25.948;2023-04-04T08:24:27;100376.59;;;3.35;93.72
71344;BME280;59146;43.850;25.948;2023-04-04T08:26:52;100332.69;;;3.10;93.88
71344;BME280;59146;43.850;25.948;2023-04-04T08:29:18;100346.69;;;3.28;93.68
71344;BME280;59146;43.850;25.948;2023-04-04T08:31:44;100399.38;;;3.48;93.07
71344;BME280;59146;43.850;25.948;2023-04-04T08:34:09;100377.81;;;3.49;92.23
71344;BME280;59146;43.850;25.948;2023-04-04T08:36:35;100362.13;;;3.29;92.19
71344;BME280;59146;43.850;25.948;2023-04-04T08:39:00;100378.25;;;3.37;92.70
71344;BME280;59146;43.850;25.948;2023-04-04T08:41:26;100407.22;;;3.45;92.85
71344;BME280;59146;43.850;25.948;2023-04-04T08:43:52;100328.91;;;3.20;93.21
71344;BME280;59146;43.850;25.948;2023-04-04T08:46:22;100320.13;;;2.99;93.05
71344;BME280;59146;43.850;25.948;2023-04-04T08:48:49;100360.66;;;3.22;92.92
71344;BME280;59146;43.850;25.948;2023-04-04T08:51:18;100347.78;;;3.20;92.59
71344;BME280;59146;43.850;25.948;2023-04-04T08:53:44;100302.59;;;2.83;92.06
71344;BME280;59146;43.850;25.948;2023-04-04T08:56:10;100332.19;;;2.99;92.67
71344;BME280;59146;43.850;25.948;2023-04-04T08:58:36;100330.56;;;3.21;92.55
71344;BME280;59146;43.850;25.948;2023-04-04T09:01:05;100313.81;;;3.08;92.51
71344;BME280;59146;43.850;25.948;2023-04-04T09:03:32;100254.19;;;2.91;92.65
71344;BME280;59146;43.850;25.948;2023-04-04T09:06:00;100339.09;;;3.25;92.82
71344;BME280;59146;43.850;25.948;2023-04-04T09:08:27;100294.41;;;2.96;92.71
71344;BME280;59146;43.850;25.948;2023-04-04T09:10:53;100343.28;;;3.27;92.09
71344;BME280;59146;43.850;25.948;2023-04-04T09:13:20;100178.81;;;2.30;92.57
71344;BME280;59146;43.850;25.948;2023-04-04T09:15:55;100320.88;;;3.28;92.76
71344;BME280;59146;43.850;25.948;2023-04-04T09:18:22;100352.09;;;3.46;92.49
71344;BME280;59146;43.850;25.948;2023-04-04T09:20:48;100332.28;;;3.22;92.41
71344;BME280;59146;43.850;25.948;2023-04-04T09:25:50;100385.44;;;3.52;93.14
71344;BME280;59146;43.850;25.948;2023-04-04T09:28:16;100415.56;;;3.53;92.79
71344;BME280;59146;43.850;25.948;2023-04-04T09:30:42;100239.31;;;2.73;92.42
71344;BME280;59146;43.850;25.948;2023-04-04T09:33:12;100374.22;;;3.29;92.67
71344;BME280;59146;43.850;25.948;2023-04-04T09:35:39;100354.09;;;3.38;93.13
71344;BME280;59146;43.850;25.948;2023-04-04T09:38:07;100300.09;;;3.06;92.84
71344;BME280;59146;43.850;25.948;2023-04-04T09:40:35;100365.38;;;3.36;93.02
71344;BME280;59146;43.850;25.948;2023-04-04T09:43:01;100345.59;;;3.10;93.23
71344;BME280;59146;43.850;25.948;2023-04-04T09:45:30;100327.59;;;3.07;93.02
71344;BME280;59146;43.850;25.948;2023-04-04T09:47:56;100321.88;;;2.99;93.44
71344;BME280;59146;43.850;25.948;2023-04-04T09:50:23;100360.41;;;3.30;93.85
71344;BME280;59146;43.850;25.948;2023-04-04T09:52:50;100342.69;;;3.19;93.44
71344;BME280;59146;43.850;25.948;2023-04-04T09:55:15;100380.34;;;3.51;93.80
71344;BME280;59146;43.850;25.948;2023-04-04T09:57:41;100355.78;;;3.13;94.73
71344;BME280;59146;43.850;25.948;2023-04-04T10:00:07;100368.72;;;3.39;94.99
71344;BME280;59146;43.850;25.948;2023-04-04T10:02:36;100257.16;;;2.79;95.17
71344;BME280;59146;43.850;25.948;2023-04-04T10:05:02;100403.22;;;3.61;95.58
71344;BME280;59146;43.850;25.948;2023-04-04T10:07:29;100327.81;;;3.01;95.35
71344;BME280;59146;43.850;25.948;2023-04-04T10:09:55;100266.31;;;2.89;95.58
71344;BME280;59146;43.850;25.948;2023-04-04T10:12:23;100374.31;;;3.52;95.67
71344;BME280;59146;43.850;25.948;2023-04-04T10:14:59;100397.78;;;3.44;95.78
71344;BME280;59146;43.850;25.948;2023-04-04T10:17:44;100340.13;;;3.44;96.00
71344;BME280;59146;43.850;25.948;2023-04-04T10:20:12;100338.38;;;3.19;96.10
71344;BME280;59146;43.850;25.948;2023-04-04T10:22:39;100347.13;;;3.40;96.38
71344;BME280;59146;43.850;25.948;2023-04-04T10:25:05;100308.94;;;3.25;96.24
71344;BME280;59146;43.850;25.948;2023-04-04T10:27:32;100361.53;;;3.47;96.22
71344;BME280;59146;43.850;25.948;2023-04-04T10:29:58;100317.94;;;3.13;96.33
71344;BME280;59146;43.850;25.948;2023-04-04T10:35:08;100349.41;;;3.49;97.04
71344;BME280;59146;43.850;25.948;2023-04-04T10:37:56;100329.22;;;3.36;97.64
71344;BME280;59146;43.850;25.948;2023-04-04T10:40:25;100388.75;;;3.57;97.67
71344;BME280;59146;43.850;25.948;2023-04-04T10:42:52;100393.00;;;3.58;97.59
71344;BME280;59146;43.850;25.948;2023-04-04T10:45:19;100277.16;;;2.98;97.34
71344;BME280;59146;43.850;25.948;2023-04-04T10:47:45;100333.56;;;3.35;97.37
71344;BME280;59146;43.850;25.948;2023-04-04T10:50:12;100329.28;;;3.34;97.93
71344;BME280;59146;43.850;25.948;2023-04-04T10:52:42;100315.00;;;3.24;96.89
71344;BME280;59146;43.850;25.948;2023-04-04T10:55:11;100339.13;;;3.48;97.25
71344;BME280;59146;43.850;25.948;2023-04-04T10:57:40;100348.13;;;3.62;97.53
71344;BME280;59146;43.850;25.948;2023-04-04T11:00:06;100406.09;;;3.78;97.16
71344;BME280;59146;43.850;25.948;2023-04-04T11:05:14;100354.31;;;3.57;96.79
71344;BME280;59146;43.850;25.948;2023-04-04T11:07:40;100352.38;;;3.63;96.98
71344;BME280;59146;43.850;25.948;2023-04-04T11:10:12;100377.56;;;3.81;97.63
71344;BME280;59146;43.850;25.948;2023-04-04T11:12:43;100360.44;;;3.79;97.17
71344;BME280;59146;43.850;25.948;2023-04-04T11:15:11;100341.59;;;3.75;97.36
71344;BME280;59146;43.850;25.948;2023-04-04T11:18:03;100357.94;;;3.76;96.85
71344;BME280;59146;43.850;25.948;2023-04-04T11:20:34;100295.78;;;3.33;97.03
71344;BME280;59146;43.850;25.948;2023-04-04T11:23:02;100341.66;;;3.74;97.64
71344;BME280;59146;43.850;25.948;2023-04-04T11:27:55;100367.06;;;3.86;96.94
71344;BME280;59146;43.850;25.948;2023-04-04T11:30:21;100392.25;;;3.79;96.54
71344;BME280;59146;43.850;25.948;2023-04-04T11:32:48;100352.16;;;3.69;96.35
71344;BME280;59146;43.850;25.948;2023-04-04T11:35:14;100267.41;;;3.31;96.59
71344;BME280;59146;43.850;25.948;2023-04-04T11:37:57;100350.19;;;3.76;96.53
71344;BME280;59146;43.850;25.948;2023-04-04T11:40:34;100387.88;;;3.81;96.56
71344;BME280;59146;43.850;25.948;2023-04-04T11:43:00;100304.06;;;3.65;96.24
71344;BME280;59146;43.850;25.948;2023-04-04T11:45:28;100379.16;;;4.09;95.68
71344;BME280;59146;43.850;25.948;2023-04-04T11:47:56;100382.34;;;3.92;95.80
71344;BME280;59146;43.850;25.948;2023-04-04T11:50:21;100374.44;;;3.96;95.95
71344;BME280;59146;43.850;25.948;2023-04-04T11:52:48;100349.13;;;3.81;96.14
71344;BME280;59146;43.850;25.948;2023-04-04T11:57:41;100355.53;;;3.71;95.59
71344;BME280;59146;43.850;25.948;2023-04-04T12:00:07;100323.03;;;3.41;95.91
71344;BME280;59146;43.850;25.948;2023-04-04T12:02:34;100394.44;;;3.91;96.21
71344;BME280;59146;43.850;25.948;2023-04-04T12:04:59;100342.94;;;3.62;96.09
71344;BME280;59146;43.850;25.948;2023-04-04T12:07:27;100372.75;;;3.71;95.39
71344;BME280;59146;43.850;25.948;2023-04-04T12:09:53;100355.47;;;3.48;95.49
71344;BME280;59146;43.850;25.948;2023-04-04T12:12:20;100359.75;;;3.74;96.00
71344;BME280;59146;43.850;25.948;2023-04-04T12:14:46;100317.44;;;3.53;96.23
71344;BME280;59146;43.850;25.948;2023-04-04T12:17:12;100367.56;;;3.72;95.87
71344;BME280;59146;43.850;25.948;2023-04-04T12:19:39;100318.25;;;3.29;96.03
71344;BME280;59146;43.850;25.948;2023-04-04T12:22:06;100334.38;;;3.60;96.46
71344;BME280;59146;43.850;25.948;2023-04-04T12:24:35;100321.00;;;3.49;96.49
71344;BME280;59146;43.850;25.948;2023-04-04T12:27:01;100401.13;;;3.97;96.43
71344;BME280;59146;43.850;25.948;2023-04-04T12:29:28;100326.91;;;3.53;96.01
71344;BME280;59146;43.850;25.948;2023-04-04T12:32:00;100384.09;;;3.91;96.10
71344;BME280;59146;43.850;25.948;2023-04-04T12:34:30;100331.47;;;3.69;96.76
71344;BME280;59146;43.850;25.948;2023-04-04T12:36:57;100369.25;;;3.96;96.55
71344;BME280;59146;43.850;25.948;2023-04-04T12:39:26;100336.19;;;3.83;96.64
71344;BME280;59146;43.850;25.948;2023-04-04T12:42:02;100355.34;;;4.00;96.49
71344;BME280;59146;43.850;25.948;2023-04-04T12:44:35;100348.94;;;3.87;97.01
71344;BME280;59146;43.850;25.948;2023-04-04T12:47:02;100343.53;;;3.69;97.02
71344;BME280;59146;43.850;25.948;2023-04-04T12:49:33;100327.25;;;3.67;96.94
71344;BME280;59146;43.850;25.948;2023-04-04T12:52:04;100311.16;;;3.83;97.26
71344;BME280;59146;43.850;25.948;2023-04-04T12:54:32;100344.72;;;3.85;96.60
71344;BME280;59146;43.850;25.948;2023-04-04T12:57:01;100359.25;;;4.11;95.89
71344;BME280;59146;43.850;25.948;2023-04-04T12:59:32;100357.53;;;4.11;95.66